Time;durP1;ratioP1;P1;durP2;ratioP2;P2;SDS_P1;SDS_P2;PMS_P1;PMS_P2;Temp;Humidity;BMP_temperature;BMP_pressure;BME280_temperature;BME280_humidity;BME280_pressure;Samples;Min_cycle;Max_cycle;Signal;HPM_P1;HPM_P2
2022/03/01 19:22:10;;;;;;;21.53;14.27;;;6.60;1.00;;;;;;5020150;28;20237;-65
2022/03/01 19:24:37;;;;;;;22.97;14.70;;;6.60;1.00;;;;;;5025465;28;20199;-65
2022/03/01 19:27:04;;;;;;;24.20;15.47;;;6.50;1.00;;;;;;5026339;28;20200;-64
2022/03/01 19:29:31;;;;;;;28.70;17.13;;;6.40;1.00;;;;;;5027819;28;20197;-64
2022/03/01 19:31:59;;;;;;;24.43;15.10;;;6.40;1.00;;;;;;5025239;28;20223;-65
2022/03/01 19:34:28;;;;;;;22.63;14.30;;;6.30;1.00;;;;;;5028081;28;20215;-65
2022/03/01 19:36:55;;;;;;;22.50;14.00;;;6.30;1.00;;;;;;5031450;28;20214;-64
2022/03/01 19:39:22;;;;;;;23.23;14.73;;;6.20;1.00;;;;;;5026041;28;20203;-64
2022/03/01 19:41:52;;;;;;;24.93;15.33;;;6.10;1.00;;;;;;5025312;28;20290;-65
2022/03/01 19:44:19;;;;;;;22.63;13.27;;;6.10;6.70;;;;;;5023096;28;20204;-65
2022/03/01 19:46:46;;;;;;;25.77;15.70;;;6.10;25.30;;;;;;5022835;28;20223;-65
2022/03/01 19:49:14;;;;;;;26.90;15.70;;;6.00;34.20;;;;;;5024346;28;20284;-65
2022/03/01 19:51:42;;;;;;;24.57;15.57;;;6.10;20.50;;;;;;5026998;28;20291;-64
2022/03/01 19:54:10;;;;;;;42.10;24.70;;;6.10;38.40;;;;;;5022383;28;20204;-64
2022/03/01 19:56:44;;;;;;;30.43;19.23;;;6.10;1.00;;;;;;5025591;28;20888;-65
2022/03/01 19:59:11;;;;;;;29.30;19.90;;;6.20;16.70;;;;;;5024206;28;20195;-65
2022/03/01 20:01:38;;;;;;;32.07;21.50;;;6.20;62.20;;;;;;5026770;28;20203;-64
2022/03/01 20:04:05;;;;;;;30.93;21.10;;;6.10;71.00;;;;;;5026811;28;20653;-65
2022/03/01 20:06:37;;;;;;;28.17;17.50;;;6.10;85.70;;;;;;5024420;28;20303;-65
2022/03/01 20:09:07;;;;;;;28.87;18.03;;;6.00;99.90;;;;;;5021904;28;20597;-64
2022/03/01 20:11:37;;;;;;;30.20;18.30;;;5.90;99.90;;;;;;5012160;28;20196;-65
2022/03/01 20:14:04;;;;;;;29.53;17.53;;;5.80;99.90;;;;;;5025597;28;20697;-65
2022/03/01 20:16:32;;;;;;;46.90;21.47;;;5.70;99.90;;;;;;5022936;28;20311;-65
2022/03/01 20:18:59;;;;;;;38.63;19.20;;;5.60;99.90;;;;;;5022936;28;23402;-64
2022/03/01 20:21:31;;;;;;;32.50;18.70;;;5.50;99.90;;;;;;5019584;28;20343;-64
2022/03/01 20:23:58;;;;;;;28.57;16.67;;;5.50;99.90;;;;;;5019860;28;20573;-65
2022/03/01 20:26:28;;;;;;;25.80;15.83;;;5.40;99.90;;;;;;5023076;28;20244;-65
2022/03/01 20:28:56;;;;;;;27.50;16.70;;;5.30;99.90;;;;;;5018934;28;20196;-65
2022/03/01 20:31:24;;;;;;;31.43;20.30;;;5.30;99.90;;;;;;5019278;28;20234;-65
2022/03/01 20:33:51;;;;;;;25.00;16.50;;;5.30;99.90;;;;;;5019687;28;20279;-64
2022/03/01 20:36:19;;;;;;;27.07;16.60;;;5.20;99.90;;;;;;5024275;28;20212;-66
2022/03/01 20:38:48;;;;;;;28.60;16.43;;;5.20;99.90;;;;;;5005369;28;20288;-63
2022/03/01 20:41:18;;;;;;;23.70;15.53;;;5.10;99.90;;;;;;5018805;28;20231;-64
2022/03/01 20:43:46;;;;;;;28.27;18.13;;;5.00;99.90;;;;;;5016437;28;20204;-63
2022/03/01 20:46:18;;;;;;;26.20;15.70;;;4.90;1.00;;;;;;5018458;28;20226;-64
2022/03/01 20:48:45;;;;;;;29.27;16.37;;;4.80;1.00;;;;;;5017020;28;20203;-65
2022/03/01 20:51:12;;;;;;;25.03;16.57;;;4.60;1.00;;;;;;5019823;28;20290;-64
2022/03/01 20:53:40;;;;;;;23.07;15.33;;;4.50;1.00;;;;;;5019461;28;20274;-64
2022/03/01 20:56:08;;;;;;;27.37;17.03;;;4.50;1.00;;;;;;5023160;28;20732;-64
2022/03/01 20:58:35;;;;;;;28.67;15.87;;;4.40;1.00;;;;;;5021231;28;20253;-64
2022/03/01 21:01:08;;;;;;;27.43;16.30;;;4.40;1.00;;;;;;5021851;28;20180;-65
2022/03/01 21:03:38;;;;;;;25.83;16.53;;;4.40;1.00;;;;;;5021555;28;20184;-64
2022/03/01 21:06:05;;;;;;;28.50;16.03;;;4.40;1.00;;;;;;5020115;28;20278;-66
2022/03/01 21:08:37;;;;;;;30.50;15.57;;;4.50;1.00;;;;;;5003933;28;20259;-63
2022/03/01 21:11:05;;;;;;;24.57;15.60;;;4.50;1.00;;;;;;5019831;28;20208;-65
2022/03/01 21:13:43;;;;;;;26.10;17.20;;;4.40;1.00;;;;;;5024548;28;20183;-65
2022/03/01 21:16:11;;;;;;;25.43;16.60;;;4.50;1.00;;;;;;5023346;28;20544;-65
2022/03/01 21:18:40;;;;;;;27.27;16.93;;;4.50;1.00;;;;;;5018560;28;20628;-64
2022/03/01 21:21:09;;;;;;;27.20;16.60;;;4.50;1.00;;;;;;5024119;28;20615;-64
2022/03/01 21:23:39;;;;;;;29.03;18.13;;;4.50;1.00;;;;;;5007451;28;20734;-64
2022/03/01 21:26:10;;;;;;;26.87;18.03;;;4.50;1.00;;;;;;5007723;28;20709;-64
2022/03/01 21:28:38;;;;;;;32.87;18.57;;;4.40;1.00;;;;;;5018765;28;20251;-64
2022/03/01 21:31:06;;;;;;;36.87;23.63;;;4.40;1.00;;;;;;5018213;28;20230;-65
2022/03/01 21:33:33;;;;;;;31.20;19.67;;;4.40;1.00;;;;;;5023538;28;20196;-64
2022/03/01 21:36:03;;;;;;;30.57;20.03;;;4.40;1.00;;;;;;5023323;28;20220;-65
2022/03/01 21:38:30;;;;;;;28.17;19.17;;;4.40;1.00;;;;;;5018373;28;20188;-63
2022/03/01 21:41:00;;;;;;;36.10;20.53;;;4.40;1.00;;;;;;5008575;28;20223;-64
2022/03/01 21:43:27;;;;;;;35.13;23.77;;;4.30;1.00;;;;;;5017018;28;20204;-64
2022/03/01 21:45:56;;;;;;;39.90;23.70;;;4.30;1.00;;;;;;5017570;28;20311;-66
2022/03/01 21:48:24;;;;;;;61.43;31.57;;;4.40;1.00;;;;;;5004924;28;20196;-65
2022/03/01 21:50:55;;;;;;;46.30;28.00;;;4.30;1.00;;;;;;5008344;28;20540;-65
2022/03/01 21:53:22;;;;;;;48.03;27.87;;;4.30;1.00;;;;;;5010400;28;20188;-65
2022/03/01 21:55:49;;;;;;;41.73;26.33;;;4.30;1.00;;;;;;5004493;28;22006;-65
2022/03/01 21:58:16;;;;;;;50.73;28.80;;;4.40;1.00;;;;;;5006011;28;20209;-65
2022/03/01 22:00:43;;;;;;;43.73;26.80;;;4.40;1.00;;;;;;5003720;28;20224;-65
2022/03/01 22:03:10;;;;;;;41.97;25.87;;;4.40;1.00;;;;;;4989246;28;20212;-65
2022/03/01 22:05:38;;;;;;;40.67;25.67;;;4.40;1.00;;;;;;5002816;28;20212;-65
2022/03/01 22:08:05;;;;;;;40.70;26.20;;;4.40;1.00;;;;;;5003836;28;20607;-64
2022/03/01 22:10:34;;;;;;;48.87;28.63;;;4.50;1.00;;;;;;4991441;28;20235;-65
2022/03/01 22:13:02;;;;;;;39.70;25.67;;;4.50;1.00;;;;;;4988946;28;20292;-64
2022/03/01 22:15:31;;;;;;;39.33;25.97;;;4.50;1.00;;;;;;4987549;28;20211;-64
2022/03/01 22:17:59;;;;;;;35.37;24.00;;;4.50;1.00;;;;;;4988143;28;20239;-64
2022/03/01 22:20:26;;;;;;;34.80;22.83;;;4.50;1.00;;;;;;5000997;28;20215;-64
2022/03/01 22:22:55;;;;;;;34.07;23.30;;;4.50;1.00;;;;;;5005623;28;20699;-63
2022/03/01 22:25:23;;;;;;;35.53;21.93;;;4.40;1.00;;;;;;5018041;28;20197;-65
2022/03/01 22:27:50;;;;;;;32.50;20.90;;;4.50;1.00;;;;;;5018128;28;20296;-65
2022/03/01 22:30:20;;;;;;;29.17;20.93;;;4.40;1.00;;;;;;5018345;28;20209;-63
2022/03/01 22:32:49;;;;;;;31.47;21.23;;;4.40;1.00;;;;;;5017207;28;20283;-63
2022/03/01 22:35:17;;;;;;;30.70;20.97;;;4.40;1.00;;;;;;5025290;28;20223;-63
2022/03/01 22:37:50;;;;;;;32.93;21.60;;;4.40;1.00;;;;;;5019531;28;20569;-63
2022/03/01 22:40:18;;;;;;;33.57;21.43;;;4.40;1.00;;;;;;5000941;28;20211;-64
2022/03/01 22:42:46;;;;;;;33.83;20.73;;;4.40;1.00;;;;;;5016335;28;20204;-63
2022/03/01 22:45:15;;;;;;;33.93;22.57;;;4.40;1.00;;;;;;5017009;28;20216;-63
2022/03/01 22:47:44;;;;;;;33.50;22.20;;;4.40;1.00;;;;;;5023354;28;20243;-63
2022/03/01 22:50:25;;;;;;;31.10;21.47;;;4.40;1.00;;;;;;5006650;28;20255;-63
2022/03/01 22:52:56;;;;;;;37.10;21.53;;;4.30;1.00;;;;;;5034437;28;20199;-63
2022/03/01 22:55:28;;;;;;;34.33;22.47;;;4.20;1.00;;;;;;5017055;28;20532;-65
2022/03/01 22:57:58;;;;;;;43.13;24.57;;;4.20;1.00;;;;;;5000670;28;20662;-63
2022/03/01 23:00:30;;;;;;;34.37;24.03;;;4.10;1.00;;;;;;5032792;28;20196;-62
2022/03/01 23:03:02;;;;;;;37.10;23.73;;;4.10;1.00;;;;;;5018139;28;20303;-62
2022/03/01 23:05:29;;;;;;;42.50;26.23;;;4.10;1.00;;;;;;5017957;28;20227;-63
2022/03/01 23:07:56;;;;;;;37.13;25.63;;;4.10;1.00;;;;;;5016548;28;20675;-62
2022/03/01 23:10:28;;;;;;;40.47;26.13;;;4.10;1.00;;;;;;5017604;28;20207;-64
2022/03/01 23:12:55;;;;;;;38.40;24.87;;;4.20;1.00;;;;;;5023291;28;20619;-64
2022/03/01 23:15:25;;;;;;;40.83;26.03;;;4.30;1.00;;;;;;5017822;28;20208;-63
2022/03/01 23:17:52;;;;;;;43.20;27.83;;;4.30;1.00;;;;;;5018256;28;20310;-62
2022/03/01 23:20:24;;;;;;;43.97;27.43;;;4.30;1.00;;;;;;5024930;28;20205;-62
2022/03/01 23:22:54;;;;;;;41.00;27.60;;;4.40;1.00;;;;;;5021603;28;20260;-64
2022/03/01 23:25:26;;;;;;;48.97;32.07;;;4.40;1.00;;;;;;5019558;28;20193;-62
2022/03/01 23:27:53;;;;;;;48.43;36.07;;;4.40;1.00;;;;;;5015320;28;20224;-63
2022/03/01 23:30:23;;;;;;;43.03;30.67;;;4.80;1.00;;;;;;5018233;28;20333;-63
2022/03/01 23:32:50;;;;;;;42.27;27.20;;;4.40;1.00;;;;;;5013953;28;20556;-63
2022/03/01 23:35:17;;;;;;;33.17;21.17;;;4.40;1.00;;;;;;5021036;28;21291;-63
2022/03/01 23:37:46;;;;;;;31.20;21.43;;;4.40;1.00;;;;;;5014126;28;20411;-65
2022/03/01 23:40:16;;;;;;;33.43;21.50;;;4.50;1.00;;;;;;5017650;28;20201;-64
2022/03/01 23:42:43;;;;;;;35.93;23.23;;;4.40;1.00;;;;;;5016211;28;20204;-63
2022/03/01 23:45:10;;;;;;;35.23;22.27;;;4.40;1.00;;;;;;5017159;28;20217;-63
2022/03/01 23:47:37;;;;;;;38.37;22.93;;;4.40;1.00;;;;;;5016260;28;20216;-64
2022/03/01 23:50:07;;;;;;;39.30;23.43;;;4.40;1.00;;;;;;5016853;28;20228;-64
2022/03/01 23:52:40;;;;;;;34.80;22.77;;;4.30;1.00;;;;;;5022665;28;20200;-63
2022/03/01 23:55:09;;;;;;;35.30;21.50;;;4.30;1.00;;;;;;5021471;28;20225;-63
2022/03/01 23:57:37;;;;;;;32.10;21.83;;;4.30;1.00;;;;;;5022437;28;20773;-64
